createdAt,value
2019-06-08T00:00:47.295Z,16.50
2019-06-08T00:03:16.666Z,16.40
2019-06-08T00:05:45.278Z,16.30
2019-06-08T00:08:14.807Z,16.20
2019-06-08T00:10:43.378Z,16.20
2019-06-08T00:13:15.088Z,16.10
2019-06-08T00:15:46.413Z,16.10
2019-06-08T00:18:15.366Z,16.10
2019-06-08T00:20:54.387Z,16.00
2019-06-08T00:23:23.907Z,16.00
2019-06-08T00:25:55.326Z,15.90
2019-06-08T00:28:24.777Z,15.90
2019-06-08T00:30:53.171Z,15.90
2019-06-08T00:33:22.593Z,15.80
2019-06-08T00:35:51.561Z,15.80
2019-06-08T00:38:21.025Z,15.80
2019-06-08T00:40:50.739Z,15.80
2019-06-08T00:43:21.412Z,15.80
2019-06-08T00:45:51.105Z,15.70
2019-06-08T00:48:21.060Z,15.80
2019-06-08T00:50:49.556Z,15.80
2019-06-08T00:53:19.721Z,15.80
2019-06-08T00:55:48.595Z,15.70
2019-06-08T00:58:18.036Z,15.60
2019-06-08T01:00:49.013Z,15.60
2019-06-08T01:03:17.588Z,15.60
2019-06-08T01:05:46.665Z,15.60
2019-06-08T01:08:15.131Z,15.60
2019-06-08T01:10:43.571Z,15.60
2019-06-08T01:13:11.932Z,15.60
2019-06-08T01:15:40.412Z,15.50
2019-06-08T01:18:08.820Z,15.60
2019-06-08T01:20:37.205Z,15.50
2019-06-08T01:23:05.658Z,15.50
2019-06-08T01:25:36.055Z,15.40
2019-06-08T01:28:04.382Z,15.50
2019-06-08T01:30:33.669Z,15.50
2019-06-08T01:33:02.121Z,15.50
2019-06-08T01:35:30.914Z,15.50
2019-06-08T01:37:59.349Z,15.50
2019-06-08T01:40:27.746Z,15.40
2019-06-08T01:42:56.046Z,15.40
2019-06-08T01:45:30.187Z,15.40
2019-06-08T01:48:01.398Z,15.40
2019-06-08T01:50:32.784Z,15.50
2019-06-08T01:53:01.076Z,15.70
2019-06-08T01:55:31.051Z,15.70
2019-06-08T01:58:02.105Z,15.70
2019-06-08T02:00:39.359Z,15.70
2019-06-08T02:03:03.173Z,15.60
2019-06-08T02:05:32.503Z,15.60
2019-06-08T02:08:01.006Z,15.50
2019-06-08T02:10:30.743Z,15.40
2019-06-08T02:12:58.573Z,15.40
2019-06-08T02:15:27.216Z,15.30
2019-06-08T02:17:59.604Z,15.30
2019-06-08T02:20:28.747Z,15.30
2019-06-08T02:22:57.153Z,15.20
2019-06-08T02:25:29.389Z,15.20
2019-06-08T02:28:00.101Z,15.30
2019-06-08T02:30:31.253Z,15.30
2019-06-08T02:32:59.707Z,15.30
2019-06-08T02:35:28.021Z,15.30
2019-06-08T02:37:56.420Z,15.20
2019-06-08T02:40:25.621Z,15.30
2019-06-08T02:42:54.072Z,15.20
2019-06-08T02:45:22.430Z,15.30
2019-06-08T02:47:50.782Z,15.30
2019-06-08T02:50:22.640Z,15.30
2019-06-08T02:52:51.485Z,15.30
2019-06-08T02:55:19.778Z,15.30
2019-06-08T02:57:48.137Z,15.30
2019-06-08T03:00:16.701Z,15.40
2019-06-08T03:02:45.315Z,15.40
2019-06-08T03:05:13.675Z,15.40
2019-06-08T03:07:43.007Z,15.50
2019-06-08T03:10:11.408Z,15.50
2019-06-08T03:12:42.362Z,15.50
2019-06-08T03:15:11.599Z,15.50
2019-06-08T03:17:40.149Z,15.60
2019-06-08T03:20:09.757Z,15.70
2019-06-08T03:22:40.780Z,15.80
2019-06-08T03:25:08.214Z,15.80
2019-06-08T03:27:40.642Z,15.90
2019-06-08T03:30:16.953Z,15.90
2019-06-08T03:32:47.029Z,15.90
2019-06-08T03:35:09.973Z,16.10
2019-06-08T03:37:39.975Z,16.20
2019-06-08T03:40:08.472Z,16.30
2019-06-08T03:42:36.825Z,16.30
2019-06-08T03:45:08.287Z,16.40
2019-06-08T03:47:37.263Z,16.50
2019-06-08T03:50:06.831Z,16.60
2019-06-08T03:52:35.527Z,16.70
2019-06-08T03:55:05.342Z,16.90
2019-06-08T03:57:35.761Z,17.20
2019-06-08T04:00:12.945Z,17.80
2019-06-08T04:02:37.988Z,18.50
2019-06-08T04:05:29.852Z,19.20
2019-06-08T04:08:17.432Z,19.80
2019-06-08T04:10:46.931Z,20.30
2019-06-08T04:13:15.447Z,20.70
2019-06-08T04:15:44.698Z,21.20
2019-06-08T04:18:14.216Z,21.60
2019-06-08T04:20:46.339Z,21.80
2019-06-08T04:23:14.516Z,22.00
2019-06-08T04:25:45.108Z,22.10
2019-06-08T04:28:14.596Z,22.30
2019-06-08T04:30:45.148Z,22.50
2019-06-08T04:33:15.028Z,22.60
2019-06-08T04:35:47.203Z,22.80
2019-06-08T04:38:17.554Z,23.10
2019-06-08T04:40:48.487Z,23.30
2019-06-08T04:43:17.333Z,23.60
2019-06-08T04:45:48.086Z,23.90
2019-06-08T04:48:16.372Z,24.20
2019-06-08T04:50:54.159Z,24.30
2019-06-08T04:53:25.984Z,24.50
2019-06-08T04:55:59.846Z,25.10
2019-06-08T04:58:29.866Z,25.30
2019-06-08T05:00:57.549Z,25.70
2019-06-08T05:03:45.523Z,26.10
2019-06-08T05:06:14.762Z,26.10
2019-06-08T05:08:47.196Z,26.40
2019-06-08T05:11:15.719Z,26.80
2019-06-08T05:13:47.648Z,27.20
2019-06-08T05:16:16.355Z,27.30
2019-06-08T05:18:47.234Z,27.70
2019-06-08T05:21:25.798Z,28.00
2019-06-08T05:23:58.916Z,28.00
2019-06-08T05:26:33.873Z,28.70
2019-06-08T05:29:05.493Z,28.90
2019-06-08T05:31:34.549Z,29.30
2019-06-08T05:34:08.142Z,29.60
2019-06-08T05:36:41.382Z,29.80
2019-06-08T05:39:17.103Z,30.10
2019-06-08T05:41:46.090Z,30.30
2019-06-08T05:44:17.192Z,30.10
2019-06-08T05:46:49.816Z,30.20
2019-06-08T05:49:18.577Z,30.20
2019-06-08T05:51:50.825Z,30.60
2019-06-08T05:54:19.266Z,30.60
2019-06-08T05:56:51.562Z,30.70
2019-06-08T05:59:23.001Z,31.00
2019-06-08T06:01:51.737Z,31.00
2019-06-08T06:04:22.563Z,31.10
2019-06-08T06:06:51.239Z,30.70
2019-06-08T06:09:19.582Z,30.90
2019-06-08T06:11:48.973Z,31.10
2019-06-08T06:14:18.893Z,31.80
2019-06-08T06:16:49.112Z,32.30
2019-06-08T06:19:17.669Z,32.70
2019-06-08T06:21:49.223Z,32.80
2019-06-08T06:24:18.098Z,33.20
2019-06-08T06:26:47.371Z,33.20
2019-06-08T06:29:16.359Z,32.90
2019-06-08T06:31:45.813Z,31.80
2019-06-08T06:34:14.547Z,31.00
2019-06-08T06:36:43.854Z,30.00
2019-06-08T06:39:13.198Z,29.20
2019-06-08T06:41:43.932Z,28.70
2019-06-08T06:44:16.126Z,28.40
2019-06-08T06:46:46.109Z,29.30
2019-06-08T06:49:19.968Z,30.70
2019-06-08T06:51:49.065Z,32.20
2019-06-08T06:54:36.630Z,33.30
2019-06-08T06:57:07.766Z,34.00
2019-06-08T06:59:43.173Z,34.70
2019-06-08T07:02:12.025Z,35.20
2019-06-08T07:04:40.693Z,35.60
2019-06-08T07:07:10.344Z,36.10
2019-06-08T07:09:39.186Z,36.50
2019-06-08T07:12:10.638Z,36.80
2019-06-08T07:14:38.878Z,36.80
2019-06-08T07:17:09.401Z,36.60
2019-06-08T07:19:42.318Z,36.70
2019-06-08T07:22:13.446Z,37.20
2019-06-08T07:24:42.608Z,37.60
2019-06-08T07:27:12.469Z,37.70
2019-06-08T07:29:56.973Z,37.40
2019-06-08T07:32:22.368Z,37.80
2019-06-08T07:34:51.653Z,38.00
2019-06-08T07:37:21.701Z,37.90
2019-06-08T07:39:51.639Z,37.70
2019-06-08T07:42:23.224Z,37.80
2019-06-08T07:44:53.085Z,38.00
2019-06-08T07:47:21.459Z,38.70
2019-06-08T07:49:51.106Z,37.90
2019-06-08T07:52:20.113Z,35.80
2019-06-08T07:54:50.975Z,34.10
2019-06-08T07:57:20.486Z,32.50
2019-06-08T07:59:50.358Z,31.10
2019-06-08T08:02:20.022Z,30.50
2019-06-08T08:04:50.455Z,30.20
2019-06-08T08:07:20.391Z,29.70
2019-06-08T08:09:50.482Z,30.00
2019-06-08T08:12:22.469Z,30.90
2019-06-08T08:14:53.309Z,32.30
2019-06-08T08:17:27.239Z,34.10
2019-06-08T08:19:57.423Z,35.50
2019-06-08T08:22:29.513Z,36.10
2019-06-08T08:25:03.250Z,36.80
2019-06-08T08:27:29.737Z,37.20
2019-06-08T08:30:02.095Z,37.40
2019-06-08T08:32:32.467Z,38.10
2019-06-08T08:35:03.936Z,38.30
2019-06-08T08:37:32.927Z,38.10
2019-06-08T08:40:08.454Z,37.70
2019-06-08T08:42:39.272Z,37.70
2019-06-08T08:45:09.536Z,37.00
2019-06-08T08:47:40.501Z,36.80
2019-06-08T08:50:10.803Z,37.20
2019-06-08T08:52:41.467Z,38.00
2019-06-08T08:55:11.577Z,38.00
2019-06-08T08:57:41.542Z,38.30
2019-06-08T09:00:11.839Z,39.00
2019-06-08T09:02:41.599Z,39.40
2019-06-08T09:05:11.712Z,39.40
2019-06-08T09:07:41.613Z,38.70
2019-06-08T09:10:14.532Z,38.30
2019-06-08T09:12:43.580Z,37.70
2019-06-08T09:15:12.049Z,37.60
2019-06-08T09:17:41.205Z,37.50
2019-06-08T09:20:15.395Z,37.50
2019-06-08T09:22:52.456Z,38.00
2019-06-08T09:25:13.742Z,37.80
2019-06-08T09:27:57.137Z,37.20
2019-06-08T09:30:38.321Z,37.10
2019-06-08T09:33:07.961Z,37.00
2019-06-08T09:35:37.903Z,37.10
2019-06-08T09:38:12.846Z,37.20
2019-06-08T09:40:41.649Z,37.00
2019-06-08T09:43:13.162Z,37.10
2019-06-08T09:45:58.763Z,36.70
2019-06-08T09:48:41.956Z,37.00
2019-06-08T09:51:23.595Z,36.30
2019-06-08T09:54:06.044Z,36.50
2019-06-08T09:56:49.545Z,36.50
2019-06-08T09:59:38.610Z,36.10
2019-06-08T10:02:07.410Z,35.70
2019-06-08T10:04:33.868Z,35.40
2019-06-08T10:07:05.695Z,35.20
2019-06-08T10:09:34.917Z,35.30
2019-06-08T10:12:06.159Z,34.80
2019-06-08T10:14:37.920Z,34.60
2019-06-08T10:17:08.954Z,34.60
2019-06-08T10:19:42.473Z,34.70
2019-06-08T10:22:24.916Z,35.00
2019-06-08T10:24:58.042Z,35.00
2019-06-08T10:27:28.437Z,34.50
2019-06-08T10:30:01.253Z,33.80
2019-06-08T10:32:31.775Z,33.30
2019-06-08T10:35:03.578Z,32.70
2019-06-08T10:37:35.579Z,31.90
2019-06-08T10:40:11.455Z,31.20
2019-06-08T10:42:44.943Z,31.40
2019-06-08T10:45:20.737Z,32.00
2019-06-08T10:47:51.945Z,32.60
2019-06-08T10:50:28.814Z,32.60
2019-06-08T10:53:01.266Z,32.20
2019-06-08T10:55:29.654Z,32.10
2019-06-08T10:58:07.153Z,31.70
2019-06-08T11:00:38.847Z,31.60
2019-06-08T11:03:11.899Z,31.30
2019-06-08T11:05:43.031Z,31.20
2019-06-08T11:08:18.817Z,31.10
2019-06-08T11:10:51.688Z,31.00
2019-06-08T11:13:23.438Z,30.80
2019-06-08T11:15:52.629Z,30.70
2019-06-08T11:18:28.644Z,30.60
2019-06-08T11:21:01.962Z,30.50
2019-06-08T11:23:30.379Z,30.40
2019-06-08T11:26:11.145Z,30.40
2019-06-08T11:28:38.180Z,30.20
2019-06-08T11:31:16.343Z,30.40
2019-06-08T11:33:49.103Z,30.30
2019-06-08T11:36:19.875Z,30.20
2019-06-08T11:38:55.923Z,29.90
2019-06-08T11:41:27.691Z,30.10
2019-06-08T11:43:59.815Z,29.80
2019-06-08T11:46:33.795Z,29.50
2019-06-08T11:49:11.682Z,29.50
2019-06-08T11:51:38.676Z,29.80
2019-06-08T11:54:25.571Z,29.80
2019-06-08T11:56:40.538Z,29.70
2019-06-08T11:59:15.197Z,29.60
2019-06-08T12:01:45.681Z,29.20
2019-06-08T12:04:14.843Z,28.90
2019-06-08T12:06:44.063Z,28.50
2019-06-08T12:09:18.925Z,28.00
2019-06-08T12:11:48.118Z,27.90
2019-06-08T12:14:18.401Z,27.70
2019-06-08T12:16:50.066Z,27.30
2019-06-08T12:19:20.846Z,27.00
2019-06-08T12:21:50.103Z,26.60
2019-06-08T12:24:22.719Z,26.20
2019-06-08T12:26:59.959Z,25.70
2019-06-08T12:29:29.176Z,25.30
2019-06-08T12:32:00.525Z,25.00
2019-06-08T12:34:29.754Z,24.70
2019-06-08T12:37:01.060Z,24.50
2019-06-08T12:39:30.328Z,24.30
2019-06-08T12:44:52.799Z,23.90
2019-06-08T12:47:27.470Z,23.80
2019-06-08T12:49:58.301Z,23.70
2019-06-08T12:52:29.464Z,23.70
2019-06-08T12:55:06.140Z,23.60
2019-06-08T12:57:28.599Z,23.70
2019-06-08T12:59:59.792Z,23.80
2019-06-08T13:02:28.060Z,23.90
2019-06-08T13:04:57.293Z,23.90
2019-06-08T13:07:28.179Z,23.80
2019-06-08T13:09:58.306Z,23.70
2019-06-08T13:12:27.440Z,23.50
2019-06-08T13:14:58.048Z,23.50
2019-06-08T13:17:27.984Z,23.40
2019-06-08T13:19:58.193Z,23.30
2019-06-08T13:22:29.055Z,23.00
2019-06-08T13:25:14.414Z,22.80
2019-06-08T13:27:28.257Z,22.40
2019-06-08T13:29:57.795Z,22.30
2019-06-08T13:32:28.641Z,22.20
2019-06-08T13:34:58.597Z,22.10
2019-06-08T13:37:27.590Z,22.00
2019-06-08T13:39:59.039Z,21.90
2019-06-08T13:42:27.960Z,21.70
2019-06-08T13:44:57.799Z,21.80
2019-06-08T13:47:28.286Z,22.00
2019-06-08T13:49:59.564Z,22.30
2019-06-08T13:52:30.186Z,22.30
2019-06-08T13:54:59.522Z,22.30
2019-06-08T13:57:28.190Z,22.30
2019-06-08T13:59:57.824Z,22.30
2019-06-08T14:02:30.977Z,22.20
2019-06-08T14:04:59.120Z,22.00
2019-06-08T14:07:34.367Z,21.90
2019-06-08T14:10:01.152Z,21.90
2019-06-08T14:13:15.042Z,21.60
2019-06-08T14:15:01.351Z,21.60
2019-06-08T14:17:29.929Z,21.50
2019-06-08T14:19:59.245Z,21.50
2019-06-08T14:22:28.903Z,21.30
2019-06-08T14:25:00.811Z,21.20
2019-06-08T14:27:32.961Z,21.00
2019-06-08T14:30:01.764Z,20.90
2019-06-08T14:32:30.102Z,20.80
2019-06-08T14:35:02.802Z,20.70
2019-06-08T14:37:30.579Z,20.60
2019-06-08T14:40:02.005Z,20.40
2019-06-08T14:42:31.728Z,20.30
2019-06-08T14:45:00.894Z,20.30
2019-06-08T14:47:30.382Z,20.40
2019-06-08T14:50:01.925Z,20.30
2019-06-08T14:52:30.787Z,20.20
2019-06-08T14:54:58.984Z,20.20
2019-06-08T14:57:28.220Z,20.30
2019-06-08T15:00:00.008Z,20.40
2019-06-08T15:02:28.631Z,20.40
2019-06-08T15:04:57.025Z,20.40
2019-06-08T15:07:27.347Z,20.40
2019-06-08T15:09:58.032Z,20.40
2019-06-08T15:12:28.577Z,20.40
2019-06-08T15:14:58.024Z,20.40
2019-06-08T15:17:30.059Z,20.40
2019-06-08T15:19:58.543Z,20.40
2019-06-08T15:22:29.056Z,20.30
2019-06-08T15:24:58.008Z,20.30
2019-06-08T15:27:30.398Z,20.20
2019-06-08T15:29:58.649Z,20.20
2019-06-08T15:32:32.182Z,20.30
2019-06-08T15:34:57.830Z,20.40
2019-06-08T15:37:27.980Z,20.40
2019-06-08T15:39:58.413Z,20.50
2019-06-08T15:42:28.742Z,20.60
2019-06-08T15:44:59.450Z,20.70
2019-06-08T15:47:26.173Z,20.80
2019-06-08T15:49:54.688Z,20.80
2019-06-08T15:52:24.426Z,20.80
2019-06-08T15:54:52.893Z,20.80
2019-06-08T15:57:24.636Z,20.60
2019-06-08T15:59:53.563Z,20.50
2019-06-08T16:02:23.070Z,20.50
2019-06-08T16:04:51.479Z,20.40
2019-06-08T16:07:20.353Z,20.30
2019-06-08T16:09:49.298Z,20.10
2019-06-08T16:12:17.752Z,20.10
2019-06-08T16:14:46.858Z,20.10
2019-06-08T16:17:27.617Z,20.20
2019-06-08T16:20:00.500Z,20.20
2019-06-08T16:22:36.039Z,20.40
2019-06-08T16:25:08.563Z,20.50
2019-06-08T16:27:38.721Z,20.70
2019-06-08T16:30:09.515Z,20.80
2019-06-08T16:32:44.512Z,20.80
2019-06-08T16:35:28.382Z,20.70
2019-06-08T16:37:56.341Z,20.70
2019-06-08T16:40:34.323Z,20.60
2019-06-08T16:43:03.630Z,20.60
2019-06-08T16:45:33.114Z,20.40
2019-06-08T16:48:01.767Z,20.40
2019-06-08T16:50:30.814Z,20.40
2019-06-08T16:52:59.543Z,20.30
2019-06-08T16:55:27.828Z,20.10
2019-06-08T16:57:56.465Z,20.10
2019-06-08T17:00:38.353Z,20.10
2019-06-08T17:02:56.579Z,20.10
2019-06-08T17:05:25.576Z,20.00
2019-06-08T17:07:54.176Z,20.00
2019-06-08T17:10:22.696Z,20.00
2019-06-08T17:12:54.645Z,19.80
2019-06-08T17:15:22.990Z,19.80
2019-06-08T17:17:53.389Z,19.70
2019-06-08T17:20:22.057Z,19.70
2019-06-08T17:22:50.607Z,19.60
2019-06-08T17:25:19.067Z,19.50
2019-06-08T17:27:47.403Z,19.50
2019-06-08T17:30:17.134Z,19.50
2019-06-08T17:32:45.383Z,19.50
2019-06-08T17:35:13.833Z,19.40
2019-06-08T17:37:42.432Z,19.40
2019-06-08T17:40:11.303Z,19.40
2019-06-08T17:42:39.690Z,19.30
2019-06-08T17:45:07.982Z,19.30
2019-06-08T17:47:36.447Z,19.30
2019-06-08T17:50:06.896Z,19.30
2019-06-08T17:52:37.078Z,19.20
2019-06-08T17:55:06.285Z,19.30
2019-06-08T17:57:44.510Z,19.30
2019-06-08T18:00:08.918Z,19.20
2019-06-08T18:02:40.182Z,19.20
2019-06-08T18:05:08.032Z,19.20
2019-06-08T18:07:38.642Z,19.20
2019-06-08T18:10:07.181Z,19.20
2019-06-08T18:12:39.250Z,19.10
2019-06-08T18:15:07.617Z,18.90
2019-06-08T18:17:39.126Z,18.80
2019-06-08T18:20:07.945Z,18.60
2019-06-08T18:22:39.130Z,18.50
2019-06-08T18:25:07.739Z,18.50
2019-06-08T18:27:39.179Z,18.40
2019-06-08T18:30:10.922Z,18.30
2019-06-08T18:32:40.202Z,18.10
2019-06-08T18:35:08.683Z,17.90
2019-06-08T18:37:39.347Z,17.70
2019-06-08T18:40:08.432Z,17.50
2019-06-08T18:42:40.007Z,17.30
2019-06-08T18:45:08.341Z,17.10
2019-06-08T18:47:38.820Z,17.10
2019-06-08T18:50:08.898Z,16.90
2019-06-08T18:52:40.539Z,16.90
2019-06-08T18:55:08.418Z,16.80
2019-06-08T18:57:41.016Z,16.70
2019-06-08T19:00:11.556Z,16.60
2019-06-08T19:02:41.997Z,16.40
2019-06-08T19:05:09.446Z,16.30
2019-06-08T19:07:39.137Z,16.20
2019-06-08T19:10:08.185Z,16.20
2019-06-08T19:12:39.395Z,16.00
2019-06-08T19:15:11.364Z,15.90
2019-06-08T19:17:43.593Z,15.70
2019-06-08T19:20:09.068Z,15.70
2019-06-08T19:22:41.694Z,15.50
2019-06-08T19:25:07.938Z,15.40
2019-06-08T19:27:40.788Z,15.40
2019-06-08T19:30:07.467Z,15.20
2019-06-08T19:32:38.930Z,15.00
2019-06-08T19:35:07.223Z,15.00
2019-06-08T19:37:35.463Z,14.90
2019-06-08T19:40:07.694Z,14.80
2019-06-08T19:42:43.244Z,14.80
2019-06-08T19:45:08.443Z,14.70
2019-06-08T19:47:35.606Z,14.70
2019-06-08T19:50:04.084Z,14.60
2019-06-08T19:52:32.457Z,14.50
2019-06-08T19:55:01.014Z,14.40
2019-06-08T19:57:29.563Z,14.30
2019-06-08T19:59:59.998Z,14.30
2019-06-08T20:02:27.566Z,14.20
2019-06-08T20:04:56.083Z,14.10
2019-06-08T20:07:24.816Z,14.10
2019-06-08T20:09:53.899Z,14.00
2019-06-08T20:12:22.596Z,13.90
2019-06-08T20:14:51.176Z,13.90
2019-06-08T20:17:20.123Z,13.80
2019-06-08T20:19:50.642Z,13.80
2019-06-08T20:22:18.703Z,13.80
2019-06-08T20:24:52.256Z,13.70
2019-06-08T20:27:17.365Z,13.70
2019-06-08T20:29:47.867Z,13.60
2019-06-08T20:32:17.573Z,13.60
2019-06-08T20:34:47.247Z,13.50
2019-06-08T20:37:14.882Z,13.40
2019-06-08T20:39:57.403Z,13.40
2019-06-08T20:42:13.382Z,13.30
2019-06-08T20:44:41.872Z,13.30
2019-06-08T20:47:10.467Z,13.20
2019-06-08T20:49:38.871Z,13.10
2019-06-08T20:52:08.597Z,13.10
2019-06-08T20:54:37.157Z,13.10
2019-06-08T20:57:07.458Z,13.10
2019-06-08T20:59:39.356Z,13.00
2019-06-08T21:02:05.053Z,13.00
2019-06-08T21:04:33.539Z,12.90
2019-06-08T21:07:02.061Z,12.90
2019-06-08T21:09:30.747Z,12.80
2019-06-08T21:11:59.226Z,12.80
2019-06-08T21:14:27.788Z,12.70
2019-06-08T21:16:58.591Z,12.70
2019-06-08T21:19:28.088Z,12.70
2019-06-08T21:21:58.936Z,12.60
2019-06-08T21:24:28.095Z,12.60
2019-06-08T21:27:00.469Z,12.60
2019-06-08T21:29:44.245Z,12.50
2019-06-08T21:32:00.504Z,12.50
2019-06-08T21:34:27.268Z,12.50
2019-06-08T21:36:56.830Z,12.50
2019-06-08T21:39:25.289Z,12.40
2019-06-08T21:41:57.517Z,12.40
2019-06-08T21:44:24.195Z,12.30
2019-06-08T21:46:53.410Z,12.30
2019-06-08T21:49:22.951Z,12.20
2019-06-08T21:51:52.933Z,12.20
2019-06-08T21:54:21.539Z,12.10
2019-06-08T21:56:51.638Z,12.20
2019-06-08T21:59:19.497Z,12.10
2019-06-08T22:01:50.379Z,12.10
2019-06-08T22:04:18.509Z,12.10
2019-06-08T22:06:48.000Z,12.10
2019-06-08T22:09:17.633Z,12.10
2019-06-08T22:11:47.130Z,12.10
2019-06-08T22:14:15.685Z,12.10
2019-06-08T22:16:43.991Z,12.00
2019-06-08T22:19:12.384Z,12.00
2019-06-08T22:21:41.015Z,11.90
2019-06-08T22:24:14.307Z,11.90
2019-06-08T22:26:44.573Z,11.90
2019-06-08T22:29:13.031Z,11.90
2019-06-08T22:31:41.398Z,11.90
2019-06-08T22:34:09.717Z,11.80
2019-06-08T22:36:38.110Z,11.80
2019-06-08T22:39:08.115Z,11.80
2019-06-08T22:41:37.287Z,11.70
2019-06-08T22:44:08.087Z,11.70
2019-06-08T22:46:37.585Z,11.70
2019-06-08T22:49:08.097Z,11.70
2019-06-08T22:51:38.227Z,11.70
2019-06-08T22:54:07.829Z,11.70
2019-06-08T22:56:37.184Z,11.70
2019-06-08T22:59:08.593Z,11.60
2019-06-08T23:01:38.227Z,11.60
2019-06-08T23:04:06.280Z,11.60
2019-06-08T23:06:35.327Z,11.60
2019-06-08T23:09:05.506Z,11.50
2019-06-08T23:11:34.439Z,11.60
2019-06-08T23:14:04.428Z,11.50
2019-06-08T23:16:33.126Z,11.50
2019-06-08T23:19:01.758Z,11.50
2019-06-08T23:21:30.414Z,11.50
2019-06-08T23:24:00.998Z,11.50
2019-06-08T23:26:28.784Z,11.40
2019-06-08T23:28:58.088Z,11.40
2019-06-08T23:31:28.989Z,11.40
2019-06-08T23:33:59.244Z,11.40
2019-06-08T23:36:51.753Z,11.40
2019-06-08T23:38:57.009Z,11.50
2019-06-08T23:41:27.290Z,11.60
2019-06-08T23:43:55.775Z,11.60
2019-06-08T23:46:24.260Z,11.50
2019-06-08T23:48:52.618Z,11.50
2019-06-08T23:51:20.949Z,11.50
2019-06-08T23:53:49.432Z,11.40
2019-06-08T23:56:18.304Z,11.40
2019-06-08T23:58:48.227Z,11.40
